sensor_id;sensor_type;location;lat;lon;timestamp;temperature;humidity
13488;DHT22;6816;48.506;9.050;2023-06-10T00:01:59;18.40;68.50
13488;DHT22;6816;48.506;9.050;2023-06-10T00:05:04;18.20;68.60
13488;DHT22;6816;48.506;9.050;2023-06-10T00:08:10;18.20;68.50
13488;DHT22;6816;48.506;9.050;2023-06-10T00:11:33;18.00;68.80
13488;DHT22;6816;48.506;9.050;2023-06-10T00:14:40;18.10;70.60
13488;DHT22;6816;48.506;9.050;2023-06-10T00:17:47;17.90;69.60
13488;DHT22;6816;48.506;9.050;2023-06-10T00:20:51;18.00;70.00
13488;DHT22;6816;48.506;9.050;2023-06-10T00:24:06;17.80;69.60
13488;DHT22;6816;48.506;9.050;2023-06-10T00:27:18;17.80;70.10
13488;DHT22;6816;48.506;9.050;2023-06-10T00:30:21;17.80;72.00
13488;DHT22;6816;48.506;9.050;2023-06-10T00:33:42;17.60;70.40
13488;DHT22;6816;48.506;9.050;2023-06-10T00:36:46;17.60;70.40
13488;DHT22;6816;48.506;9.050;2023-06-10T00:39:50;17.60;70.50
13488;DHT22;6816;48.506;9.050;2023-06-10T00:42:52;17.50;71.00
13488;DHT22;6816;48.506;9.050;2023-06-10T00:46:06;17.40;70.70
13488;DHT22;6816;48.506;9.050;2023-06-10T00:49:25;17.40;72.10
13488;DHT22;6816;48.506;9.050;2023-06-10T00:52:33;17.10;70.70
13488;DHT22;6816;48.506;9.050;2023-06-10T00:55:57;17.30;71.70
13488;DHT22;6816;48.506;9.050;2023-06-10T00:58:59;17.30;72.10
13488;DHT22;6816;48.506;9.050;2023-06-10T01:01:59;17.20;71.70
13488;DHT22;6816;48.506;9.050;2023-06-10T01:05:02;17.10;71.60
13488;DHT22;6816;48.506;9.050;2023-06-10T01:08:26;17.10;72.10
13488;DHT22;6816;48.506;9.050;2023-06-10T01:11:35;17.00;73.70
13488;DHT22;6816;48.506;9.050;2023-06-10T01:14:37;16.90;73.00
13488;DHT22;6816;48.506;9.050;2023-06-10T01:20:59;16.80;74.20
13488;DHT22;6816;48.506;9.050;2023-06-10T01:24:00;16.80;72.80
13488;DHT22;6816;48.506;9.050;2023-06-10T01:27:07;16.70;73.00
13488;DHT22;6816;48.506;9.050;2023-06-10T01:30:17;16.60;74.00
13488;DHT22;6816;48.506;9.050;2023-06-10T01:33:33;16.60;75.20
13488;DHT22;6816;48.506;9.050;2023-06-10T01:36:35;16.60;74.40
13488;DHT22;6816;48.506;9.050;2023-06-10T01:39:37;16.50;74.40
13488;DHT22;6816;48.506;9.050;2023-06-10T01:42:39;16.50;74.60
13488;DHT22;6816;48.506;9.050;2023-06-10T01:45:40;16.50;74.70
13488;DHT22;6816;48.506;9.050;2023-06-10T01:48:41;16.50;74.90
13488;DHT22;6816;48.506;9.050;2023-06-10T01:51:42;16.40;75.10
13488;DHT22;6816;48.506;9.050;2023-06-10T01:54:43;16.40;75.00
13488;DHT22;6816;48.506;9.050;2023-06-10T01:57:45;16.40;75.10
13488;DHT22;6816;48.506;9.050;2023-06-10T02:00:46;16.40;75.10
13488;DHT22;6816;48.506;9.050;2023-06-10T02:03:46;16.30;75.20
13488;DHT22;6816;48.506;9.050;2023-06-10T02:06:47;16.30;75.20
13488;DHT22;6816;48.506;9.050;2023-06-10T02:09:48;16.30;75.20
13488;DHT22;6816;48.506;9.050;2023-06-10T02:12:49;16.30;75.20
13488;DHT22;6816;48.506;9.050;2023-06-10T02:15:50;16.20;75.50
13488;DHT22;6816;48.506;9.050;2023-06-10T02:18:50;16.20;75.70
13488;DHT22;6816;48.506;9.050;2023-06-10T02:21:51;16.20;75.70
13488;DHT22;6816;48.506;9.050;2023-06-10T02:24:51;16.10;75.90
13488;DHT22;6816;48.506;9.050;2023-06-10T02:27:52;16.10;75.90
13488;DHT22;6816;48.506;9.050;2023-06-10T02:30:53;16.10;76.20
13488;DHT22;6816;48.506;9.050;2023-06-10T02:33:55;16.00;76.30
13488;DHT22;6816;48.506;9.050;2023-06-10T02:36:58;16.00;76.40
13488;DHT22;6816;48.506;9.050;2023-06-10T02:39:58;16.00;76.50
13488;DHT22;6816;48.506;9.050;2023-06-10T02:42:59;16.00;76.60
13488;DHT22;6816;48.506;9.050;2023-06-10T02:45:59;15.90;76.70
13488;DHT22;6816;48.506;9.050;2023-06-10T02:49:00;15.90;76.70
13488;DHT22;6816;48.506;9.050;2023-06-10T02:52:03;15.90;76.80
13488;DHT22;6816;48.506;9.050;2023-06-10T02:55:04;15.80;76.90
13488;DHT22;6816;48.506;9.050;2023-06-10T02:58:05;15.80;76.90
13488;DHT22;6816;48.506;9.050;2023-06-10T03:01:09;15.80;77.10
13488;DHT22;6816;48.506;9.050;2023-06-10T03:04:11;15.80;77.60
13488;DHT22;6816;48.506;9.050;2023-06-10T03:07:14;15.60;77.30
13488;DHT22;6816;48.506;9.050;2023-06-10T03:10:15;15.70;77.40
13488;DHT22;6816;48.506;9.050;2023-06-10T03:13:16;15.70;77.20
13488;DHT22;6816;48.506;9.050;2023-06-10T03:16:17;15.70;77.10
13488;DHT22;6816;48.506;9.050;2023-06-10T03:19:18;15.70;77.30
13488;DHT22;6816;48.506;9.050;2023-06-10T03:22:21;15.60;77.30
13488;DHT22;6816;48.506;9.050;2023-06-10T03:25:22;15.60;77.40
13488;DHT22;6816;48.506;9.050;2023-06-10T03:28:24;15.50;77.30
13488;DHT22;6816;48.506;9.050;2023-06-10T03:31:26;15.50;77.60
13488;DHT22;6816;48.506;9.050;2023-06-10T03:34:28;15.50;77.70
13488;DHT22;6816;48.506;9.050;2023-06-10T03:37:30;15.40;78.00
13488;DHT22;6816;48.506;9.050;2023-06-10T03:40:31;15.40;77.90
13488;DHT22;6816;48.506;9.050;2023-06-10T03:43:34;15.40;78.10
13488;DHT22;6816;48.506;9.050;2023-06-10T03:46:35;15.40;78.70
13488;DHT22;6816;48.506;9.050;2023-06-10T03:49:39;15.20;78.70
13488;DHT22;6816;48.506;9.050;2023-06-10T03:52:48;15.20;79.00
13488;DHT22;6816;48.506;9.050;2023-06-10T03:55:52;15.30;79.30
13488;DHT22;6816;48.506;9.050;2023-06-10T03:58:56;15.30;79.40
13488;DHT22;6816;48.506;9.050;2023-06-10T04:01:58;15.20;79.20
13488;DHT22;6816;48.506;9.050;2023-06-10T04:05:01;15.40;79.60
13488;DHT22;6816;48.506;9.050;2023-06-10T04:08:05;15.40;79.60
13488;DHT22;6816;48.506;9.050;2023-06-10T04:11:07;15.40;79.90
13488;DHT22;6816;48.506;9.050;2023-06-10T04:14:09;15.40;79.70
13488;DHT22;6816;48.506;9.050;2023-06-10T04:17:10;15.40;80.20
13488;DHT22;6816;48.506;9.050;2023-06-10T04:20:12;15.50;79.90
13488;DHT22;6816;48.506;9.050;2023-06-10T04:23:12;15.40;80.10
13488;DHT22;6816;48.506;9.050;2023-06-10T04:26:13;15.50;80.10
13488;DHT22;6816;48.506;9.050;2023-06-10T04:29:14;15.50;80.20
13488;DHT22;6816;48.506;9.050;2023-06-10T04:32:15;15.50;80.20
13488;DHT22;6816;48.506;9.050;2023-06-10T04:35:19;15.60;80.40
13488;DHT22;6816;48.506;9.050;2023-06-10T04:38:20;15.50;80.50
13488;DHT22;6816;48.506;9.050;2023-06-10T04:41:27;15.60;80.50
13488;DHT22;6816;48.506;9.050;2023-06-10T04:44:27;15.70;81.10
13488;DHT22;6816;48.506;9.050;2023-06-10T04:47:29;15.70;80.60
13488;DHT22;6816;48.506;9.050;2023-06-10T04:50:33;15.80;81.00
13488;DHT22;6816;48.506;9.050;2023-06-10T04:53:34;15.80;80.70
13488;DHT22;6816;48.506;9.050;2023-06-10T04:56:35;15.90;81.00
13488;DHT22;6816;48.506;9.050;2023-06-10T04:59:37;15.90;80.90
13488;DHT22;6816;48.506;9.050;2023-06-10T05:02:41;16.00;81.20
13488;DHT22;6816;48.506;9.050;2023-06-10T05:05:43;16.00;81.40
13488;DHT22;6816;48.506;9.050;2023-06-10T05:08:49;16.10;81.60
13488;DHT22;6816;48.506;9.050;2023-06-10T05:11:54;16.20;81.60
13488;DHT22;6816;48.506;9.050;2023-06-10T05:15:07;16.30;81.60
13488;DHT22;6816;48.506;9.050;2023-06-10T05:18:08;16.50;82.50
13488;DHT22;6816;48.506;9.050;2023-06-10T05:21:09;16.60;81.60
13488;DHT22;6816;48.506;9.050;2023-06-10T05:24:09;16.80;81.70
13488;DHT22;6816;48.506;9.050;2023-06-10T05:27:10;16.90;81.90
13488;DHT22;6816;48.506;9.050;2023-06-10T05:30:11;17.20;81.80
13488;DHT22;6816;48.506;9.050;2023-06-10T05:33:19;17.30;81.60
13488;DHT22;6816;48.506;9.050;2023-06-10T05:36:20;17.60;81.60
13488;DHT22;6816;48.506;9.050;2023-06-10T05:39:20;17.80;81.00
13488;DHT22;6816;48.506;9.050;2023-06-10T05:42:22;17.90;80.70
13488;DHT22;6816;48.506;9.050;2023-06-10T05:45:22;18.20;80.30
13488;DHT22;6816;48.506;9.050;2023-06-10T05:48:23;18.30;80.20
13488;DHT22;6816;48.506;9.050;2023-06-10T05:51:25;18.50;80.00
13488;DHT22;6816;48.506;9.050;2023-06-10T05:54:26;18.70;79.70
13488;DHT22;6816;48.506;9.050;2023-06-10T05:57:28;18.90;79.20
13488;DHT22;6816;48.506;9.050;2023-06-10T06:00:34;19.00;79.10
13488;DHT22;6816;48.506;9.050;2023-06-10T06:03:35;19.20;78.40
13488;DHT22;6816;48.506;9.050;2023-06-10T06:06:38;19.30;78.40
13488;DHT22;6816;48.506;9.050;2023-06-10T06:09:39;19.50;78.30
13488;DHT22;6816;48.506;9.050;2023-06-10T06:12:40;19.60;78.30
13488;DHT22;6816;48.506;9.050;2023-06-10T06:15:41;19.80;78.40
13488;DHT22;6816;48.506;9.050;2023-06-10T06:18:41;20.00;77.80
13488;DHT22;6816;48.506;9.050;2023-06-10T06:21:42;20.10;77.20
13488;DHT22;6816;48.506;9.050;2023-06-10T06:24:42;20.30;76.80
13488;DHT22;6816;48.506;9.050;2023-06-10T06:27:43;20.40;76.60
13488;DHT22;6816;48.506;9.050;2023-06-10T06:30:44;20.60;76.10
13488;DHT22;6816;48.506;9.050;2023-06-10T06:33:44;20.70;75.90
13488;DHT22;6816;48.506;9.050;2023-06-10T06:36:45;20.90;75.80
13488;DHT22;6816;48.506;9.050;2023-06-10T06:39:46;21.00;75.70
13488;DHT22;6816;48.506;9.050;2023-06-10T06:42:46;21.20;75.10
13488;DHT22;6816;48.506;9.050;2023-06-10T06:45:47;21.30;75.20
13488;DHT22;6816;48.506;9.050;2023-06-10T06:48:48;21.40;74.30
13488;DHT22;6816;48.506;9.050;2023-06-10T06:51:49;21.60;73.70
13488;DHT22;6816;48.506;9.050;2023-06-10T06:54:49;21.70;73.20
13488;DHT22;6816;48.506;9.050;2023-06-10T06:57:50;21.80;72.90
13488;DHT22;6816;48.506;9.050;2023-06-10T07:00:51;22.00;72.50
13488;DHT22;6816;48.506;9.050;2023-06-10T07:03:51;22.10;72.80
13488;DHT22;6816;48.506;9.050;2023-06-10T07:06:52;22.20;72.70
13488;DHT22;6816;48.506;9.050;2023-06-10T07:09:53;22.40;72.50
13488;DHT22;6816;48.506;9.050;2023-06-10T07:12:53;22.50;72.20
13488;DHT22;6816;48.506;9.050;2023-06-10T07:15:54;22.70;71.60
13488;DHT22;6816;48.506;9.050;2023-06-10T07:18:54;22.80;71.20
13488;DHT22;6816;48.506;9.050;2023-06-10T07:21:55;23.00;71.10
13488;DHT22;6816;48.506;9.050;2023-06-10T07:24:56;23.10;70.70
13488;DHT22;6816;48.506;9.050;2023-06-10T07:27:56;23.30;70.60
13488;DHT22;6816;48.506;9.050;2023-06-10T07:30:57;23.50;69.90
13488;DHT22;6816;48.506;9.050;2023-06-10T07:33:58;23.60;69.50
13488;DHT22;6816;48.506;9.050;2023-06-10T07:36:58;23.80;69.00
13488;DHT22;6816;48.506;9.050;2023-06-10T07:39:59;23.90;69.20
13488;DHT22;6816;48.506;9.050;2023-06-10T07:43:00;24.00;68.70
13488;DHT22;6816;48.506;9.050;2023-06-10T07:46:00;24.10;68.60
13488;DHT22;6816;48.506;9.050;2023-06-10T07:49:01;24.30;68.80
13488;DHT22;6816;48.506;9.050;2023-06-10T07:52:03;24.50;68.40
13488;DHT22;6816;48.506;9.050;2023-06-10T07:55:06;24.70;68.50
13488;DHT22;6816;48.506;9.050;2023-06-10T07:58:06;24.80;67.70
13488;DHT22;6816;48.506;9.050;2023-06-10T08:01:07;25.00;67.00
13488;DHT22;6816;48.506;9.050;2023-06-10T08:04:08;25.20;66.60
13488;DHT22;6816;48.506;9.050;2023-06-10T08:07:09;25.40;65.80
13488;DHT22;6816;48.506;9.050;2023-06-10T08:10:09;25.50;65.70
13488;DHT22;6816;48.506;9.050;2023-06-10T08:13:10;25.70;65.50
13488;DHT22;6816;48.506;9.050;2023-06-10T08:16:11;25.80;65.00
13488;DHT22;6816;48.506;9.050;2023-06-10T08:19:12;25.90;64.70
13488;DHT22;6816;48.506;9.050;2023-06-10T08:22:12;26.10;63.90
13488;DHT22;6816;48.506;9.050;2023-06-10T08:25:13;26.20;63.40
13488;DHT22;6816;48.506;9.050;2023-06-10T08:28:14;26.30;62.70
13488;DHT22;6816;48.506;9.050;2023-06-10T08:31:14;26.40;62.60
13488;DHT22;6816;48.506;9.050;2023-06-10T08:34:15;26.50;62.10
13488;DHT22;6816;48.506;9.050;2023-06-10T08:37:16;26.60;61.70
13488;DHT22;6816;48.506;9.050;2023-06-10T08:40:16;26.70;61.10
13488;DHT22;6816;48.506;9.050;2023-06-10T08:43:25;26.70;61.00
13488;DHT22;6816;48.506;9.050;2023-06-10T08:46:31;26.80;60.40
13488;DHT22;6816;48.506;9.050;2023-06-10T08:49:34;26.90;60.70
13488;DHT22;6816;48.506;9.050;2023-06-10T08:52:43;27.00;60.00
13488;DHT22;6816;48.506;9.050;2023-06-10T08:55:48;27.10;59.90
13488;DHT22;6816;48.506;9.050;2023-06-10T08:58:52;27.20;59.50
13488;DHT22;6816;48.506;9.050;2023-06-10T09:01:53;27.30;60.00
13488;DHT22;6816;48.506;9.050;2023-06-10T09:04:56;27.40;59.50
13488;DHT22;6816;48.506;9.050;2023-06-10T09:07:58;27.50;58.90
13488;DHT22;6816;48.506;9.050;2023-06-10T09:10:59;27.50;58.50
13488;DHT22;6816;48.506;9.050;2023-06-10T09:14:00;27.60;58.40
13488;DHT22;6816;48.506;9.050;2023-06-10T09:17:02;27.70;58.50
13488;DHT22;6816;48.506;9.050;2023-06-10T09:20:03;27.70;58.40
13488;DHT22;6816;48.506;9.050;2023-06-10T09:23:03;27.80;58.20
13488;DHT22;6816;48.506;9.050;2023-06-10T09:26:08;27.90;57.90
13488;DHT22;6816;48.506;9.050;2023-06-10T09:29:09;28.00;57.90
13488;DHT22;6816;48.506;9.050;2023-06-10T09:32:12;28.10;57.70
13488;DHT22;6816;48.506;9.050;2023-06-10T09:35:13;28.10;57.30
13488;DHT22;6816;48.506;9.050;2023-06-10T09:38:19;28.20;57.30
13488;DHT22;6816;48.506;9.050;2023-06-10T09:41:20;28.20;57.10
13488;DHT22;6816;48.506;9.050;2023-06-10T09:44:22;28.30;57.00
13488;DHT22;6816;48.506;9.050;2023-06-10T09:47:24;28.30;56.70
13488;DHT22;6816;48.506;9.050;2023-06-10T09:50:25;28.40;56.70
13488;DHT22;6816;48.506;9.050;2023-06-10T09:53:26;28.50;56.50
13488;DHT22;6816;48.506;9.050;2023-06-10T09:56:35;28.50;56.40
13488;DHT22;6816;48.506;9.050;2023-06-10T09:59:39;28.60;55.70
13488;DHT22;6816;48.506;9.050;2023-06-10T10:02:48;28.70;56.00
13488;DHT22;6816;48.506;9.050;2023-06-10T10:05:48;28.80;55.50
13488;DHT22;6816;48.506;9.050;2023-06-10T10:08:50;28.80;55.60
13488;DHT22;6816;48.506;9.050;2023-06-10T10:11:52;28.90;55.40
13488;DHT22;6816;48.506;9.050;2023-06-10T10:14:54;29.00;54.90
13488;DHT22;6816;48.506;9.050;2023-06-10T10:18:09;29.00;54.50
13488;DHT22;6816;48.506;9.050;2023-06-10T10:21:13;29.20;54.50
13488;DHT22;6816;48.506;9.050;2023-06-10T10:24:18;29.10;54.30
13488;DHT22;6816;48.506;9.050;2023-06-10T10:27:27;29.20;54.20
13488;DHT22;6816;48.506;9.050;2023-06-10T10:30:30;29.20;53.10
13488;DHT22;6816;48.506;9.050;2023-06-10T10:36:41;29.30;52.90
13488;DHT22;6816;48.506;9.050;2023-06-10T10:39:42;29.30;53.10
13488;DHT22;6816;48.506;9.050;2023-06-10T10:42:43;29.40;53.70
13488;DHT22;6816;48.506;9.050;2023-06-10T10:45:58;29.40;53.10
13488;DHT22;6816;48.506;9.050;2023-06-10T10:49:01;29.50;51.90
13488;DHT22;6816;48.506;9.050;2023-06-10T10:52:04;29.60;52.40
13488;DHT22;6816;48.506;9.050;2023-06-10T10:55:12;29.70;52.40
13488;DHT22;6816;48.506;9.050;2023-06-10T10:58:13;29.70;51.40
13488;DHT22;6816;48.506;9.050;2023-06-10T11:01:16;29.80;52.00
13488;DHT22;6816;48.506;9.050;2023-06-10T11:04:18;29.80;51.60
13488;DHT22;6816;48.506;9.050;2023-06-10T11:07:25;29.80;51.40
13488;DHT22;6816;48.506;9.050;2023-06-10T11:10:33;29.90;51.10
13488;DHT22;6816;48.506;9.050;2023-06-10T11:13:34;29.90;50.60
13488;DHT22;6816;48.506;9.050;2023-06-10T11:16:42;30.00;51.10
13488;DHT22;6816;48.506;9.050;2023-06-10T11:19:44;30.00;50.40
13488;DHT22;6816;48.506;9.050;2023-06-10T11:23:01;30.10;50.40
13488;DHT22;6816;48.506;9.050;2023-06-10T11:26:22;30.20;49.90
13488;DHT22;6816;48.506;9.050;2023-06-10T11:29:32;30.20;49.50
13488;DHT22;6816;48.506;9.050;2023-06-10T11:32:34;30.30;50.20
13488;DHT22;6816;48.506;9.050;2023-06-10T11:35:35;30.20;49.90
13488;DHT22;6816;48.506;9.050;2023-06-10T11:38:36;30.20;50.10
13488;DHT22;6816;48.506;9.050;2023-06-10T11:41:38;30.20;50.20
13488;DHT22;6816;48.506;9.050;2023-06-10T11:44:50;30.20;50.20
13488;DHT22;6816;48.506;9.050;2023-06-10T11:48:00;30.20;50.10
13488;DHT22;6816;48.506;9.050;2023-06-10T11:51:07;30.30;49.40
13488;DHT22;6816;48.506;9.050;2023-06-10T11:54:08;30.30;49.80
13488;DHT22;6816;48.506;9.050;2023-06-10T11:57:09;30.30;50.20
13488;DHT22;6816;48.506;9.050;2023-06-10T12:00:10;30.40;50.00
13488;DHT22;6816;48.506;9.050;2023-06-10T12:03:11;30.50;49.90
13488;DHT22;6816;48.506;9.050;2023-06-10T12:06:12;30.60;49.80
13488;DHT22;6816;48.506;9.050;2023-06-10T12:09:18;30.70;50.30
13488;DHT22;6816;48.506;9.050;2023-06-10T12:12:19;30.70;48.90
13488;DHT22;6816;48.506;9.050;2023-06-10T12:15:24;30.70;49.00
13488;DHT22;6816;48.506;9.050;2023-06-10T12:18:25;30.70;48.40
13488;DHT22;6816;48.506;9.050;2023-06-10T12:21:26;30.70;48.90
13488;DHT22;6816;48.506;9.050;2023-06-10T12:24:27;30.60;48.50
13488;DHT22;6816;48.506;9.050;2023-06-10T12:27:29;30.50;48.40
13488;DHT22;6816;48.506;9.050;2023-06-10T12:30:31;30.40;48.40
13488;DHT22;6816;48.506;9.050;2023-06-10T12:33:32;30.40;48.40
13488;DHT22;6816;48.506;9.050;2023-06-10T12:36:33;30.30;48.40
13488;DHT22;6816;48.506;9.050;2023-06-10T12:39:51;30.30;48.40
13488;DHT22;6816;48.506;9.050;2023-06-10T12:42:55;30.30;48.80
13488;DHT22;6816;48.506;9.050;2023-06-10T12:46:08;30.30;48.60
13488;DHT22;6816;48.506;9.050;2023-06-10T12:49:19;30.40;48.40
13488;DHT22;6816;48.506;9.050;2023-06-10T12:52:21;30.40;47.80
13488;DHT22;6816;48.506;9.050;2023-06-10T12:55:22;30.40;47.80
13488;DHT22;6816;48.506;9.050;2023-06-10T12:58:22;30.40;47.50
13488;DHT22;6816;48.506;9.050;2023-06-10T13:01:23;30.40;47.40
13488;DHT22;6816;48.506;9.050;2023-06-10T13:04:24;30.40;47.30
13488;DHT22;6816;48.506;9.050;2023-06-10T13:07:25;30.50;47.40
13488;DHT22;6816;48.506;9.050;2023-06-10T13:10:25;30.50;47.30
13488;DHT22;6816;48.506;9.050;2023-06-10T13:13:26;30.60;47.20
13488;DHT22;6816;48.506;9.050;2023-06-10T13:16:27;30.70;46.90
13488;DHT22;6816;48.506;9.050;2023-06-10T13:19:27;30.60;46.80
13488;DHT22;6816;48.506;9.050;2023-06-10T13:22:28;30.60;46.90
13488;DHT22;6816;48.506;9.050;2023-06-10T13:25:29;30.60;47.10
13488;DHT22;6816;48.506;9.050;2023-06-10T13:28:30;30.70;47.60
13488;DHT22;6816;48.506;9.050;2023-06-10T13:31:31;30.80;47.30
13488;DHT22;6816;48.506;9.050;2023-06-10T13:34:32;30.90;46.80
13488;DHT22;6816;48.506;9.050;2023-06-10T13:37:33;31.00;46.70
13488;DHT22;6816;48.506;9.050;2023-06-10T13:40:34;31.10;46.50
13488;DHT22;6816;48.506;9.050;2023-06-10T13:43:35;31.20;46.20
13488;DHT22;6816;48.506;9.050;2023-06-10T13:46:37;31.20;46.10
13488;DHT22;6816;48.506;9.050;2023-06-10T13:49:39;31.30;45.90
13488;DHT22;6816;48.506;9.050;2023-06-10T13:52:40;31.40;45.80
13488;DHT22;6816;48.506;9.050;2023-06-10T13:55:41;31.40;45.40
13488;DHT22;6816;48.506;9.050;2023-06-10T13:58:42;31.50;45.70
13488;DHT22;6816;48.506;9.050;2023-06-10T14:01:43;31.50;45.50
13488;DHT22;6816;48.506;9.050;2023-06-10T14:04:43;31.60;45.90
13488;DHT22;6816;48.506;9.050;2023-06-10T14:07:44;31.70;45.20
13488;DHT22;6816;48.506;9.050;2023-06-10T14:10:45;31.70;45.00
13488;DHT22;6816;48.506;9.050;2023-06-10T14:13:45;31.80;44.80
13488;DHT22;6816;48.506;9.050;2023-06-10T14:16:46;31.80;44.70
13488;DHT22;6816;48.506;9.050;2023-06-10T14:19:47;31.80;44.40
13488;DHT22;6816;48.506;9.050;2023-06-10T14:22:47;32.00;45.00
13488;DHT22;6816;48.506;9.050;2023-06-10T14:25:48;32.10;45.50
13488;DHT22;6816;48.506;9.050;2023-06-10T14:28:49;32.20;44.70
13488;DHT22;6816;48.506;9.050;2023-06-10T14:31:50;32.40;44.30
13488;DHT22;6816;48.506;9.050;2023-06-10T14:34:50;32.40;44.10
13488;DHT22;6816;48.506;9.050;2023-06-10T14:37:51;32.50;43.80
13488;DHT22;6816;48.506;9.050;2023-06-10T14:40:51;32.60;43.60
13488;DHT22;6816;48.506;9.050;2023-06-10T14:43:53;32.60;43.20
13488;DHT22;6816;48.506;9.050;2023-06-10T14:46:53;32.60;42.90
13488;DHT22;6816;48.506;9.050;2023-06-10T14:49:54;32.50;42.90
13488;DHT22;6816;48.506;9.050;2023-06-10T14:52:54;32.30;43.00
13488;DHT22;6816;48.506;9.050;2023-06-10T14:55:55;32.20;43.20
13488;DHT22;6816;48.506;9.050;2023-06-10T14:58:56;32.10;43.40
13488;DHT22;6816;48.506;9.050;2023-06-10T15:01:56;32.10;43.60
13488;DHT22;6816;48.506;9.050;2023-06-10T15:04:58;32.20;44.30
13488;DHT22;6816;48.506;9.050;2023-06-10T15:08:00;32.40;44.10
13488;DHT22;6816;48.506;9.050;2023-06-10T15:11:01;32.60;43.70
13488;DHT22;6816;48.506;9.050;2023-06-10T15:14:03;32.80;43.40
13488;DHT22;6816;48.506;9.050;2023-06-10T15:17:04;32.80;43.10
13488;DHT22;6816;48.506;9.050;2023-06-10T15:20:07;32.80;43.20
13488;DHT22;6816;48.506;9.050;2023-06-10T15:23:07;32.80;43.20
13488;DHT22;6816;48.506;9.050;2023-06-10T15:26:08;32.90;43.60
13488;DHT22;6816;48.506;9.050;2023-06-10T15:29:09;33.10;43.10
13488;DHT22;6816;48.506;9.050;2023-06-10T15:32:10;33.30;42.90
13488;DHT22;6816;48.506;9.050;2023-06-10T15:35:10;33.60;42.60
13488;DHT22;6816;48.506;9.050;2023-06-10T15:38:12;33.80;42.90
13488;DHT22;6816;48.506;9.050;2023-06-10T15:41:13;34.00;42.80
13488;DHT22;6816;48.506;9.050;2023-06-10T15:44:13;34.10;42.10
13488;DHT22;6816;48.506;9.050;2023-06-10T15:47:16;34.10;41.70
13488;DHT22;6816;48.506;9.050;2023-06-10T15:50:16;33.90;41.30
13488;DHT22;6816;48.506;9.050;2023-06-10T15:53:17;33.70;41.40
13488;DHT22;6816;48.506;9.050;2023-06-10T15:56:17;33.40;41.50
13488;DHT22;6816;48.506;9.050;2023-06-10T15:59:18;33.10;42.10
13488;DHT22;6816;48.506;9.050;2023-06-10T16:02:19;32.90;42.80
13488;DHT22;6816;48.506;9.050;2023-06-10T16:05:20;32.90;43.50
13488;DHT22;6816;48.506;9.050;2023-06-10T16:08:20;32.90;43.70
13488;DHT22;6816;48.506;9.050;2023-06-10T16:11:21;33.00;44.00
13488;DHT22;6816;48.506;9.050;2023-06-10T16:14:22;33.20;43.50
13488;DHT22;6816;48.506;9.050;2023-06-10T16:17:23;33.10;43.50
13488;DHT22;6816;48.506;9.050;2023-06-10T16:20:23;33.10;43.80
13488;DHT22;6816;48.506;9.050;2023-06-10T16:23:24;33.10;43.60
13488;DHT22;6816;48.506;9.050;2023-06-10T16:26:25;33.20;43.70
13488;DHT22;6816;48.506;9.050;2023-06-10T16:29:26;33.30;43.40
13488;DHT22;6816;48.506;9.050;2023-06-10T16:32:26;33.50;43.20
13488;DHT22;6816;48.506;9.050;2023-06-10T16:35:27;33.50;43.00
13488;DHT22;6816;48.506;9.050;2023-06-10T16:38:28;33.70;43.00
13488;DHT22;6816;48.506;9.050;2023-06-10T16:41:28;33.50;42.80
13488;DHT22;6816;48.506;9.050;2023-06-10T16:44:29;33.30;42.70
13488;DHT22;6816;48.506;9.050;2023-06-10T16:47:29;33.10;42.80
13488;DHT22;6816;48.506;9.050;2023-06-10T16:50:31;32.90;43.40
13488;DHT22;6816;48.506;9.050;2023-06-10T16:53:31;32.70;43.60
13488;DHT22;6816;48.506;9.050;2023-06-10T16:56:32;32.50;43.70
13488;DHT22;6816;48.506;9.050;2023-06-10T16:59:32;32.30;44.10
13488;DHT22;6816;48.506;9.050;2023-06-10T17:02:33;32.00;44.30
13488;DHT22;6816;48.506;9.050;2023-06-10T17:05:34;31.80;44.50
13488;DHT22;6816;48.506;9.050;2023-06-10T17:08:34;31.70;44.50
13488;DHT22;6816;48.506;9.050;2023-06-10T17:11:35;31.50;44.80
13488;DHT22;6816;48.506;9.050;2023-06-10T17:14:37;31.40;45.30
13488;DHT22;6816;48.506;9.050;2023-06-10T17:17:38;31.20;45.60
13488;DHT22;6816;48.506;9.050;2023-06-10T17:20:40;31.10;45.50
13488;DHT22;6816;48.506;9.050;2023-06-10T17:23:40;30.90;45.30
13488;DHT22;6816;48.506;9.050;2023-06-10T17:26:41;30.80;45.40
13488;DHT22;6816;48.506;9.050;2023-06-10T17:29:42;30.70;45.60
13488;DHT22;6816;48.506;9.050;2023-06-10T17:32:42;30.60;45.70
13488;DHT22;6816;48.506;9.050;2023-06-10T17:35:44;30.50;45.90
13488;DHT22;6816;48.506;9.050;2023-06-10T17:38:44;30.40;46.00
13488;DHT22;6816;48.506;9.050;2023-06-10T17:41:45;30.30;45.70
13488;DHT22;6816;48.506;9.050;2023-06-10T17:44:46;30.20;45.60
13488;DHT22;6816;48.506;9.050;2023-06-10T17:47:48;30.20;45.60
13488;DHT22;6816;48.506;9.050;2023-06-10T17:50:49;30.10;45.80
13488;DHT22;6816;48.506;9.050;2023-06-10T17:53:50;30.00;46.20
13488;DHT22;6816;48.506;9.050;2023-06-10T17:56:50;30.00;46.30
13488;DHT22;6816;48.506;9.050;2023-06-10T17:59:51;29.90;46.90
13488;DHT22;6816;48.506;9.050;2023-06-10T18:02:52;29.90;46.30
13488;DHT22;6816;48.506;9.050;2023-06-10T18:05:54;29.80;46.10
13488;DHT22;6816;48.506;9.050;2023-06-10T18:08:54;29.80;46.40
13488;DHT22;6816;48.506;9.050;2023-06-10T18:11:55;29.80;46.60
13488;DHT22;6816;48.506;9.050;2023-06-10T18:14:56;29.70;46.60
13488;DHT22;6816;48.506;9.050;2023-06-10T18:17:56;29.70;46.40
13488;DHT22;6816;48.506;9.050;2023-06-10T18:20:57;29.70;46.50
13488;DHT22;6816;48.506;9.050;2023-06-10T18:23:58;29.70;46.50
13488;DHT22;6816;48.506;9.050;2023-06-10T18:26:58;29.70;46.30
13488;DHT22;6816;48.506;9.050;2023-06-10T18:29:59;29.60;46.30
13488;DHT22;6816;48.506;9.050;2023-06-10T18:33:00;29.60;46.50
13488;DHT22;6816;48.506;9.050;2023-06-10T18:36:00;29.50;46.70
13488;DHT22;6816;48.506;9.050;2023-06-10T18:39:01;29.50;46.90
13488;DHT22;6816;48.506;9.050;2023-06-10T18:42:02;29.40;47.10
13488;DHT22;6816;48.506;9.050;2023-06-10T18:45:03;29.40;47.30
13488;DHT22;6816;48.506;9.050;2023-06-10T18:48:04;29.30;47.50
13488;DHT22;6816;48.506;9.050;2023-06-10T18:51:05;29.20;47.80
13488;DHT22;6816;48.506;9.050;2023-06-10T18:54:05;29.10;47.90
13488;DHT22;6816;48.506;9.050;2023-06-10T18:57:06;29.10;48.20
13488;DHT22;6816;48.506;9.050;2023-06-10T19:00:07;29.00;48.30
13488;DHT22;6816;48.506;9.050;2023-06-10T19:03:08;28.90;48.40
13488;DHT22;6816;48.506;9.050;2023-06-10T19:06:09;28.80;48.50
13488;DHT22;6816;48.506;9.050;2023-06-10T19:09:10;28.70;48.60
13488;DHT22;6816;48.506;9.050;2023-06-10T19:12:11;28.60;48.80
13488;DHT22;6816;48.506;9.050;2023-06-10T19:15:12;28.50;48.90
13488;DHT22;6816;48.506;9.050;2023-06-10T19:18:13;28.40;49.00
13488;DHT22;6816;48.506;9.050;2023-06-10T19:21:13;28.30;49.10
13488;DHT22;6816;48.506;9.050;2023-06-10T19:24:14;28.20;49.40
13488;DHT22;6816;48.506;9.050;2023-06-10T19:27:15;28.10;49.60
13488;DHT22;6816;48.506;9.050;2023-06-10T19:30:16;28.00;49.80
13488;DHT22;6816;48.506;9.050;2023-06-10T19:33:21;27.90;50.00
13488;DHT22;6816;48.506;9.050;2023-06-10T19:36:23;27.80;50.30